| time (UTC) | temp F | wind direction | speed knots | gust knots | rain 1hr in | rain 24hr in | rain mn in | humidity % | barometer mb |
| 20260508090510 | 39 | 337 | 0.0 | 0.9 | 0.00 | 0.00 | 0.00 | 75 | 1006.0 |
| 20260508085608 | 39 | 337 | 0.0 | 0.9 | 0.00 | 0.00 | 0.00 | 74 | 1006.1 |
| 20260508084612 | 39 | 337 | 0.0 | 0.0 | 0.00 | 0.00 | 0.00 | 73 | 1006.0 |
| 20260508082610 | 40 | 292 | 0.0 | 0.9 | 0.00 | 0.00 | 0.00 | 71 | 1006.1 |
| 20260508081608 | 40 | 360 | 0.0 | 0.9 | 0.00 | 0.00 | 0.00 | 71 | 1005.9 |
| 20260508080608 | 40 | 325 | 0.0 | 0.0 | 0.00 | 0.00 | 0.00 | 70 | 1006.0 |
| 20260508075609 | 40 | 335 | 0.9 | 2.6 | 0.00 | 0.00 | 0.00 | 69 | 1006.0 |
| 20260508074610 | 41 | 334 | 0.9 | 2.6 | 0.00 | 0.00 | 0.00 | 68 | 1005.9 |
| 20260508073611 | 41 | 329 | 0.9 | 2.6 | 0.00 | 0.00 | 0.00 | 66 | 1005.7 |
| 20260508072610 | 41 | 332 | 2.6 | 3.5 | 0.00 | 0.00 | 0.00 | 66 | 1005.8 |
| 20260508071709 | 42 | 351 | 0.9 | 2.6 | 0.00 | 0.00 | 0.00 | 65 | 1005.9 |
| 20260508070808 | 42 | 344 | 1.7 | 3.5 | 0.00 | 0.00 | 0.00 | 65 | 1005.8 |
| 20260508065809 | 42 | 349 | 1.7 | 3.5 | 0.00 | 0.00 | 0.00 | 65 | 1005.9 |
| 20260508063808 | 42 | 323 | 1.7 | 4.3 | 0.00 | 0.00 | 0.00 | 63 | 1005.9 |
| 20260508061810 | 43 | 332 | 1.7 | 4.3 | 0.00 | 0.00 | 0.00 | 62 | 1006.1 |
| 20260508060809 | 43 | 334 | 2.6 | 6.1 | 0.00 | 0.00 | 0.00 | 61 | 1006.1 |
| 20260508055809 | 43 | 335 | 2.6 | 4.3 | 0.00 | 0.00 | 0.00 | 61 | 1006.4 |
| 20260508053809 | 43 | 22 | 0.0 | 0.0 | 0.00 | 0.00 | 0.00 | 61 | 1006.4 |
| 20260508052808 | 43 | 349 | 1.7 | 3.5 | 0.00 | 0.00 | 0.00 | 60 | 1006.3 |
| 20260508051907 | 43 | 322 | 3.5 | 6.1 | 0.00 | 0.00 | 0.00 | 60 | 1006.4 |
| 20260508045911 | 42 | 360 | 0.0 | 0.0 | 0.00 | 0.00 | 0.00 | 62 | 1006.5 |
| 20260508045008 | 43 | 360 | 0.0 | 0.0 | 0.00 | 0.00 | 0.00 | 60 | 1006.5 |
| 20260508043109 | 42 | 333 | 3.5 | 3.5 | 0.00 | 0.00 | 0.00 | 64 | 1006.8 |
| 20260508042110 | 41 | 348 | 0.9 | 1.7 | 0.00 | 0.00 | 0.00 | 65 | 1006.9 |
| 20260508040208 | 42 | 180 | 0.0 | 0.0 | 0.00 | 0.00 | 0.00 | 64 | 1007.1 |
| 20260508035216 | 41 | 180 | 0.0 | 0.0 | 0.00 | 0.00 | 0.00 | 66 | 1007.1 |
| 20260508034216 | 41 | 178 | 2.6 | 5.2 | 0.00 | 0.00 | 0.00 | 67 | 1007.2 |
| 20260508033216 | 42 | 157 | 0.9 | 0.9 | 0.00 | 0.00 | 0.00 | 65 | 1007.3 |
| 20260508032218 | 0 | 0 | 0.0 | 0.0 | 0.00 | 0.00 | 0.00 | 100 | |
| 20260508031216 | 0 | 0 | 0.0 | 0.0 | 0.00 | 0.00 | 0.00 | 100 | |
| 20260508030217 | 0 | 0 | 0.0 | 0.0 | 0.00 | 0.00 | 0.00 | 100 | |
| 20260508025218 | 44 | 225 | 0.0 | 0.0 | 0.00 | 0.00 | 0.00 | 58 | 1006.8 |
| 20260508024216 | 44 | 292 | 0.9 | 1.7 | 0.00 | 0.00 | 0.00 | 61 | 1007.0 |
| 20260508023234 | 44 | 292 | 0.0 | 0.9 | 0.00 | 0.00 | 0.00 | 57 | 1006.7 |
| 20260508022217 | 44 | 157 | 0.0 | 0.0 | 0.00 | 0.00 | 0.00 | 56 | 1006.9 |
| 20260508020317 | 45 | 157 | 0.0 | 0.0 | 0.00 | 0.00 | 0.00 | 56 | 1006.8 |
| 20260508014417 | 47 | 135 | 0.9 | 1.7 | 0.00 | 0.00 | 0.00 | 51 | 1007.2 |
| 20260508013418 | 48 | 337 | 1.7 | 1.7 | 0.00 | 0.00 | 0.00 | 48 | 1007.1 |
| 20260508012418 | 48 | 337 | 0.0 | 0.9 | 0.00 | 0.00 | 0.00 | 48 | 1007.0 |
| 20260508011517 | 49 | 360 | 1.7 | 2.6 | 0.00 | 0.00 | 0.00 | 46 | 1007.1 |
| 20260508010517 | 49 | 7 | 2.6 | 3.5 | 0.00 | 0.00 | 0.00 | 47 | 1007.2 |
| 20260508005519 | 49 | 342 | 1.7 | 3.5 | 0.00 | 0.00 | 0.00 | 46 | 1007.0 |
| 20260508004518 | 50 | 312 | 1.7 | 3.5 | 0.00 | 0.00 | 0.00 | 46 | 1006.9 |
| 20260508003517 | 50 | 332 | 2.6 | 5.2 | 0.00 | 0.00 | 0.00 | 46 | 1006.9 |
| 20260508001516 | 51 | 345 | 4.3 | 7.0 | 0.00 | 0.00 | 0.00 | 44 | 1006.7 |
| 20260508000516 | 52 | 357 | 5.2 | 8.7 | 0.00 | 0.00 | 0.00 | 44 | 1006.5 |
| 20260507235516 | 52 | 324 | 4.3 | 9.6 | 0.00 | 0.00 | 0.00 | 44 | 1006.4 |
| 20260507234518 | 53 | 7 | 8.7 | 16.5 | 0.00 | 0.00 | 0.00 | 44 | 1006.0 |
| 20260507233516 | 53 | 326 | 4.3 | 7.0 | 0.00 | 0.00 | 0.00 | 46 | 1005.7 |
| 20260507232517 | 54 | 349 | 5.2 | 8.7 | 0.00 | 0.00 | 0.00 | 47 | 1005.5 |
| 20260507231518 | 55 | 357 | 8.7 | 13.0 | 0.00 | 0.00 | 0.00 | 50 | 1005.1 |
| 20260507225516 | 56 | 349 | 7.8 | 12.2 | 0.00 | 0.00 | 0.00 | 52 | 1004.6 |
| 20260507224519 | 57 | 348 | 3.5 | 5.2 | 0.00 | 0.00 | 0.00 | 54 | 1004.4 |
| 20260507223616 | 57 | 20 | 4.3 | 9.6 | 0.00 | 0.00 | 0.00 | 58 | 1004.2 |
| 20260507222616 | 56 | 32 | 5.2 | 9.6 | 0.00 | 0.00 | 0.00 | 61 | 1004.2 |
| 20260507221619 | 56 | 22 | 2.6 | 3.5 | 0.00 | 0.00 | 0.00 | 61 | 1004.1 |
| 20260507220716 | 57 | 32 | 3.5 | 5.2 | 0.00 | 0.00 | 0.00 | 61 | 1003.9 |
| 20260507215717 | 57 | 25 | 3.5 | 5.2 | 0.00 | 0.00 | 0.00 | 60 | 1004.0 |
| 20260507214816 | 57 | 341 | 2.6 | 3.5 | 0.00 | 0.00 | 0.00 | 59 | 1004.0 |
| 20260507213834 | 58 | 328 | 3.5 | 5.2 | 0.00 | 0.00 | 0.00 | 58 | 1003.9 |
| 20260507212917 | 58 | 18 | 5.2 | 9.6 | 0.00 | 0.00 | 0.00 | 58 | 1003.8 |
| 20260507211919 | 58 | 358 | 4.3 | 7.0 | 0.00 | 0.00 | 0.00 | 55 | 1003.7 |
| 20260507211016 | 59 | 20 | 7.8 | 11.3 | 0.00 | 0.00 | 0.00 | 52 | 1003.6 |
| 20260507210018 | 59 | 332 | 1.7 | 6.1 | 0.00 | 0.00 | 0.00 | 51 | 1003.6 |
| 20260507204117 | 59 | 341 | 2.6 | 4.3 | 0.00 | 0.00 | 0.00 | 51 | 1003.4 |
| 20260507203117 | 59 | 343 | 2.6 | 5.2 | 0.00 | 0.00 | 0.00 | 49 | 1003.2 |
| 20260507201216 | 59 | 340 | 5.2 | 10.4 | 0.00 | 0.00 | 0.00 | 52 | 1003.1 |
| 20260507195317 | 58 | 359 | 3.5 | 5.2 | 0.00 | 0.00 | 0.00 | 54 | 1003.2 |
| 20260507194415 | 58 | 313 | 3.5 | 6.1 | 0.00 | 0.00 | 0.00 | 53 | 1003.4 |
| 20260507193418 | 59 | 351 | 4.3 | 7.0 | 0.00 | 0.00 | 0.00 | 52 | 1003.3 |
| 20260507192417 | 60 | 344 | 4.3 | 8.7 | 0.00 | 0.00 | 0.00 | 52 | 1003.4 |
| 20260507191418 | 59 | 343 | 4.3 | 6.1 | 0.00 | 0.00 | 0.00 | 52 | 1003.3 |
| 20260507190419 | 59 | 335 | 5.2 | 7.0 | 0.00 | 0.00 | 0.00 | 52 | 1003.3 |
| 20260507185417 | 60 | 342 | 5.2 | 7.8 | 0.00 | 0.00 | 0.00 | 47 | 1003.4 |
| 20260507184419 | 63 | 324 | 3.5 | 4.3 | 0.00 | 0.00 | 0.00 | 43 | 1003.4 |
| 20260507183434 | 62 | 78 | 0.9 | 2.6 | 0.00 | 0.00 | 0.00 | 43 | 1003.5 |
| 20260507182419 | 63 | 327 | 5.2 | 10.4 | 0.00 | 0.00 | 0.00 | 43 | 1003.6 |
| 20260507181416 | 62 | 146 | 5.2 | 9.6 | 0.00 | 0.00 | 0.00 | 45 | 1003.5 |
| 20260507180417 | 60 | 330 | 0.9 | 3.5 | 0.00 | 0.00 | 0.00 | 45 | 1003.8 |
| 20260507175517 | 60 | 335 | 3.5 | 5.2 | 0.00 | 0.00 | 0.00 | 47 | 1003.8 |
| 20260507174616 | 62 | 123 | 1.7 | 4.3 | 0.00 | 0.00 | 0.00 | 46 | 1003.9 |
| 20260507173618 | 62 | 141 | 4.3 | 8.7 | 0.00 | 0.00 | 0.00 | 46 | 1004.0 |
| 20260507172617 | 63 | 156 | 6.1 | 10.4 | 0.00 | 0.00 | 0.00 | 45 | 1003.8 |
| 20260507171616 | 62 | 178 | 2.6 | 3.5 | 0.00 | 0.00 | 0.00 | 47 | 1004.0 |
| 20260507170632 | 60 | 168 | 5.2 | 7.0 | 0.00 | 0.00 | 0.00 | 48 | 1004.0 |
| 20260507165719 | 60 | 359 | 4.3 | 7.0 | 0.00 | 0.00 | 0.00 | 50 | 1004.2 |
| 20260507162918 | 59 | 314 | 1.7 | 3.5 | 0.00 | 0.00 | 0.00 | 50 | 1004.8 |
| 20260507161933 | 58 | 29 | 1.7 | 3.5 | 0.00 | 0.00 | 0.00 | 53 | 1005.0 |
| 20260507160017 | 58 | 315 | 3.5 | 6.1 | 0.00 | 0.00 | 0.00 | 55 | 1005.0 |
| 20260507155017 | 58 | 340 | 1.7 | 3.5 | 0.00 | 0.00 | 0.00 | 55 | 1005.0 |
| 20260507154017 | 58 | 35 | 0.0 | 1.7 | 0.00 | 0.00 | 0.00 | 58 | 1005.2 |
| 20260507152016 | 57 | 353 | 1.7 | 2.6 | 0.00 | 0.00 | 0.00 | 60 | 1005.4 |
| 20260507151017 | 56 | 108 | 3.5 | 5.2 | 0.00 | 0.00 | 0.00 | 59 | 1005.6 |
| 20260507150015 | 57 | 337 | 0.0 | 1.7 | 0.00 | 0.00 | 0.00 | 61 | 1005.8 |
| 20260507145021 | 0 | 0 | 0.0 | 0.0 | 0.00 | 0.00 | 0.00 | 100 | |
| 20260507144022 | 56 | 135 | 1.7 | 1.7 | 0.00 | 0.00 | 0.00 | 63 | 1005.9 |
| 20260507143021 | 55 | 32 | 3.5 | 4.3 | 0.00 | 0.00 | 0.00 | 64 | 1006.0 |
| 20260507142038 | 54 | 8 | 0.9 | 2.6 | 0.00 | 0.00 | 0.00 | 66 | 1006.2 |
| 20260507141020 | 54 | 360 | 3.5 | 3.5 | 0.00 | 0.00 | 0.00 | 67 | 1006.1 |
| 20260507135022 | 53 | 319 | 2.6 | 3.5 | 0.00 | 0.00 | 0.00 | 71 | 1006.3 |
| 20260507134020 | 52 | 292 | 0.0 | 1.7 | 0.00 | 0.00 | 0.00 | 74 | 1006.2 |
| 20260507133119 | 52 | 35 | 4.3 | 7.8 | 0.00 | 0.00 | 0.00 | 75 | 1006.3 |
| 20260507132122 | 51 | 16 | 2.6 | 6.1 | 0.00 | 0.00 | 0.00 | 76 | 1006.4 |
| 20260507131121 | 52 | 35 | 7.8 | 10.4 | 0.00 | 0.00 | 0.00 | 77 | 1006.4 |
| 20260507130121 | 51 | 329 | 3.5 | 5.2 | 0.00 | 0.00 | 0.00 | 78 | 1006.4 |
| 20260507125219 | 50 | 299 | 0.9 | 1.7 | 0.00 | 0.00 | 0.00 | 79 | 1006.4 |
| 20260507124222 | 50 | 330 | 3.5 | 5.2 | 0.00 | 0.00 | 0.00 | 79 | 1006.7 |
| 20260507123238 | 50 | 342 | 3.5 | 5.2 | 0.00 | 0.00 | 0.00 | 81 | 1006.6 |
| 20260507122223 | 50 | 336 | 3.5 | 5.2 | 0.00 | 0.00 | 0.00 | 82 | 1006.7 |
| 20260507120322 | 49 | 348 | 2.6 | 4.3 | 0.00 | 0.00 | 0.00 | 84 | 1006.9 |
| 20260507115320 | 48 | 343 | 2.6 | 2.6 | 0.00 | 0.00 | 0.00 | 86 | 1006.5 |
| 20260507114320 | 48 | 325 | 2.6 | 6.1 | 0.00 | 0.00 | 0.00 | 88 | 1006.9 |
| 20260507113320 | 48 | 346 | 2.6 | 4.3 | 0.00 | 0.00 | 0.00 | 89 | 1006.9 |
| 20260507112321 | 48 | 346 | 0.9 | 2.6 | 0.00 | 0.00 | 0.00 | 89 | 1006.8 |
| 20260507111321 | 47 | 345 | 1.7 | 3.5 | 0.00 | 0.00 | 0.00 | 90 | 1006.3 |
| 20260507110319 | 47 | 3 | 4.3 | 5.2 | 0.00 | 0.00 | 0.00 | 91 | 1006.3 |
| 20260507105321 | 47 | 327 | 2.6 | 5.2 | 0.00 | 0.00 | 0.00 | 93 | 1006.5 |
| 20260507104321 | 46 | 342 | 3.5 | 7.8 | 0.00 | 0.00 | 0.00 | 94 | 1006.1 |
| 20260507103420 | 46 | 313 | 0.0 | 1.7 | 0.00 | 0.00 | 0.00 | 95 | 1006.3 |
| 20260507102520 | 46 | 326 | 1.7 | 2.6 | 0.00 | 0.00 | 0.00 | 96 | 1006.0 |
| 20260507101520 | 46 | 360 | 0.9 | 0.9 | 0.00 | 0.00 | 0.00 | 96 | 1006.0 |
| 20260507100523 | 46 | 316 | 0.0 | 0.9 | 0.00 | 0.00 | 0.00 | 96 | 1006.2 |
| 20260507095522 | 46 | 337 | 0.0 | 0.9 | 0.00 | 0.00 | 0.00 | 96 | 1006.2 |
| 20260507093622 | 46 | 348 | 0.9 | 2.6 | 0.00 | 0.00 | 0.00 | 95 | 1006.0 |
| 20260507093520 | 46 | 337 | 0.9 | 1.7 | 0.00 | 0.00 | 0.00 | 96 | 1006.2 |
| 20260507092522 | 46 | 360 | 0.0 | 0.0 | 0.00 | 0.00 | 0.00 | 96 | 1006.3 |
| 20260507091619 | 46 | 360 | 0.0 | 1.7 | 0.00 | 0.00 | 0.00 | 96 | 1005.7 |